Time;durP1;ratioP1;P1;durP2;ratioP2;P2;SDS_P1;SDS_P2;PMS_P1;PMS_P2;Temp;Humidity;BMP_temperature;BMP_pressure;BME280_temperature;BME280_humidity;BME280_pressure;Samples;Min_cycle;Max_cycle;Signal;HPM_P1;HPM_P2
2022/11/08 00:03:22;;;;;;;2.63;1.20;;;;;;;17.40;66.23;100817.56;5220617;24;20062;-91
2022/11/08 00:14:19;;;;;;;2.13;1.02;;;;;;;17.39;66.01;100815.81;4831968;29;20166;-81
2022/11/08 00:16:44;;;;;;;3.95;1.30;;;;;;;17.39;66.04;100810.63;4828447;29;20066;-81
2022/11/08 00:19:09;;;;;;;3.15;1.00;;;;;;;17.41;66.21;100815.81;4813513;29;20037;-81
2022/11/08 00:21:35;;;;;;;2.70;1.33;;;;;;;17.40;66.23;100820.16;4830224;29;20128;-82
2022/11/08 00:24:00;;;;;;;2.97;1.08;;;;;;;17.38;66.06;100814.13;4828723;29;20078;-81
2022/11/08 00:26:26;;;;;;;5.10;1.50;;;;;;;17.39;66.09;100814.97;4812737;29;20034;-81
2022/11/08 00:28:51;;;;;;;4.40;1.35;;;;;;;17.38;65.94;100806.31;4828601;29;20128;-81
2022/11/08 00:31:17;;;;;;;3.28;1.40;;;;;;;17.38;65.82;100814.13;4813024;29;20124;-81
2022/11/08 00:47:51;;;;;;;3.13;1.30;;;;;;;17.38;65.85;100810.66;5074802;24;20137;-81
2022/11/08 00:50:16;;;;;;;2.40;1.08;;;;;;;17.38;66.17;100802.84;4832127;29;20077;-81
2022/11/08 01:17:43;;;;;;;3.97;1.30;;;;;;;17.37;65.82;100781.16;5617653;24;20050;-91
2022/11/08 01:20:09;;;;;;;3.20;1.30;;;;;;;17.37;65.54;100775.09;4788130;30;20066;-81
2022/11/08 01:22:34;;;;;;;2.85;1.20;;;;;;;17.36;65.76;100771.66;4788155;30;20051;-80
2022/11/08 01:25:00;;;;;;;3.72;1.40;;;;;;;17.36;65.66;100763.00;4773514;30;20115;-81
2022/11/08 01:27:25;;;;;;;3.10;1.33;;;;;;;17.36;65.89;100760.38;4772990;30;20096;-81
2022/11/08 01:29:50;;;;;;;2.67;1.25;;;;;;;17.37;65.76;100756.91;4773718;30;20050;-81
2022/11/08 01:32:16;;;;;;;2.80;1.20;;;;;;;17.35;65.62;100759.50;4773458;30;20031;-81
2022/11/08 01:34:41;;;;;;;2.00;1.20;;;;;;;17.35;65.71;100756.91;4775080;30;20117;-81
2022/11/08 01:37:06;;;;;;;3.13;1.25;;;;;;;17.35;65.87;100749.09;4775160;30;20038;-81
2022/11/08 01:39:34;;;;;;;3.05;1.20;;;;;;;17.36;65.78;100750.00;4775837;30;20425;-81
2022/11/08 01:42:00;;;;;;;3.08;1.23;;;;;;;17.35;65.70;100738.69;4790353;30;20064;-81
2022/11/08 01:44:25;;;;;;;2.97;1.25;;;;;;;17.35;65.80;100737.84;4788689;30;20051;-81
2022/11/08 01:46:50;;;;;;;3.10;1.20;;;;;;;17.35;65.60;100736.09;4788222;29;20031;-81
2022/11/08 01:49:43;;;;;;;4.32;1.42;;;;;;;17.35;65.64;100727.44;4773343;30;20035;-80
2022/11/08 01:52:33;;;;;;;2.55;1.13;;;;;;;17.35;65.47;100732.63;4789282;30;20068;-81
2022/11/08 01:55:17;;;;;;;3.67;1.30;;;;;;;17.36;65.54;100732.63;4773098;30;20031;-80
2022/11/08 01:57:54;;;;;;;2.22;1.00;;;;;;;17.35;65.45;100727.44;4789721;30;20527;-81
2022/11/08 02:00:20;;;;;;;3.10;1.13;;;;;;;17.35;65.50;100727.44;4773426;30;20072;-79
2022/11/08 02:02:51;;;;;;;2.33;1.08;;;;;;;17.35;65.48;100727.44;4786909;30;20035;-80
2022/11/08 02:05:24;;;;;;;2.45;1.00;;;;;;;17.35;65.59;100724.84;4772676;30;20463;-80
2022/11/08 02:08:05;;;;;;;3.55;1.08;;;;;;;17.34;65.49;100723.13;4758775;30;20031;-80
2022/11/08 02:10:38;;;;;;;2.28;1.10;;;;;;;17.34;65.33;100718.78;4772757;30;20039;-80
2022/11/08 02:13:07;;;;;;;3.23;1.10;;;;;;;17.34;65.43;100721.38;4773191;30;20475;-80
2022/11/08 02:15:32;;;;;;;3.00;1.35;;;;;;;17.35;65.55;100723.09;4789640;29;20486;-81
2022/11/08 02:17:58;;;;;;;2.60;0.90;;;;;;;17.34;65.56;100721.38;4790482;29;20051;-81
2022/11/08 02:20:24;;;;;;;2.22;1.02;;;;;;;17.34;65.43;100716.19;4775948;30;20116;-81
2022/11/08 02:23:16;;;;;;;2.08;0.90;;;;;;;17.35;65.38;100717.03;4760922;29;20031;-81
2022/11/08 02:25:43;;;;;;;2.97;1.20;;;;;;;17.34;65.33;100712.72;4788993;29;20055;-80
2022/11/08 02:28:08;;;;;;;2.60;1.02;;;;;;;17.34;65.23;100710.13;4769909;30;20040;-81
2022/11/08 02:30:35;;;;;;;1.88;0.90;;;;;;;17.33;65.49;100717.03;4772827;30;20031;-80
2022/11/08 02:33:13;;;;;;;4.10;1.00;;;;;;;17.33;65.66;100705.78;4789090;29;20031;-81
2022/11/08 02:35:38;;;;;;;2.78;1.08;;;;;;;17.34;65.33;100710.13;4800575;29;20039;-81
2022/11/08 02:38:04;;;;;;;2.22;1.15;;;;;;;17.33;65.50;100709.25;4757798;30;20056;-81
2022/11/08 02:40:29;;;;;;;2.75;1.17;;;;;;;17.32;65.40;100699.72;4786132;30;20032;-80
2022/11/08 02:42:54;;;;;;;2.58;1.05;;;;;;;17.32;65.19;100697.13;4788614;29;20031;-80
2022/11/08 02:45:20;;;;;;;2.25;1.05;;;;;;;17.32;65.17;100699.72;4786263;29;20058;-78
2022/11/08 02:47:45;;;;;;;1.73;1.00;;;;;;;17.33;65.35;100693.63;4783051;30;20035;-79
2022/11/08 02:50:11;;;;;;;2.45;1.15;;;;;;;17.34;65.48;100686.72;4785592;30;20043;-80
2022/11/08 02:52:36;;;;;;;2.42;1.10;;;;;;;17.33;65.42;100680.63;4802092;29;20517;-80
2022/11/08 02:55:01;;;;;;;2.38;1.00;;;;;;;17.34;65.45;100677.16;4788423;29;20039;-80
2022/11/08 02:57:27;;;;;;;2.65;1.10;;;;;;;17.34;65.39;100678.91;4788497;29;20062;-80
2022/11/08 02:59:52;;;;;;;1.83;1.08;;;;;;;17.31;65.40;100669.41;4787017;30;20427;-80
2022/11/08 03:02:17;;;;;;;2.22;1.08;;;;;;;17.32;65.36;100668.50;4772571;30;20092;-80
2022/11/08 03:04:43;;;;;;;1.85;1.10;;;;;;;17.31;65.16;100661.59;4772409;30;20129;-80
2022/11/08 03:07:08;;;;;;;3.05;0.90;;;;;;;17.31;65.03;100659.00;4802569;29;20043;-79
2022/11/08 03:09:33;;;;;;;1.63;1.00;;;;;;;17.32;65.07;100654.66;4787416;30;20050;-79
2022/11/08 03:11:59;;;;;;;3.45;1.25;;;;;;;17.32;65.41;100645.09;4786957;30;20031;-80
2022/11/08 03:14:24;;;;;;;1.63;0.90;;;;;;;17.32;65.61;100641.66;4802465;29;20628;-80
2022/11/08 03:16:50;;;;;;;3.72;1.00;;;;;;;17.31;65.16;100638.19;4775445;30;20095;-80
2022/11/08 03:19:15;;;;;;;2.50;0.98;;;;;;;17.31;65.23;100639.91;4790239;30;20150;-81
2022/11/08 03:21:40;;;;;;;3.00;1.10;;;;;;;17.32;65.07;100634.69;4793006;30;20079;-81
2022/11/08 03:24:06;;;;;;;2.33;0.98;;;;;;;17.30;65.18;100636.47;4796155;30;20046;-81
2022/11/08 03:26:32;;;;;;;2.40;0.85;;;;;;;17.31;65.00;100624.31;4778017;30;20399;-81
2022/11/08 03:28:57;;;;;;;3.00;1.10;;;;;;;17.30;65.42;100626.06;4795707;30;20043;-84
2022/11/08 03:31:22;;;;;;;2.53;1.00;;;;;;;17.30;65.02;100617.41;4810553;29;20029;-82
2022/11/08 03:33:48;;;;;;;2.30;1.15;;;;;;;17.29;64.72;100613.94;4805873;29;20055;-81
2022/11/08 03:36:13;;;;;;;1.58;0.80;;;;;;;17.31;65.04;100606.09;4791349;29;20030;-81
2022/11/08 03:38:38;;;;;;;2.60;1.10;;;;;;;17.28;65.07;100600.06;4790379;30;20088;-80
2022/11/08 03:41:04;;;;;;;3.10;1.00;;;;;;;17.30;65.20;100607.00;4775718;30;20129;-81
2022/11/08 03:43:29;;;;;;;2.53;1.05;;;;;;;17.28;65.13;100601.81;4789833;30;20410;-80
2022/11/08 03:45:55;;;;;;;4.50;1.10;;;;;;;17.30;65.02;100596.59;4804773;29;20089;-81
2022/11/08 03:48:22;;;;;;;2.80;0.93;;;;;;;17.30;65.12;100597.44;4789196;29;20055;-80
2022/11/08 03:50:47;;;;;;;4.85;1.10;;;;;;;17.30;65.00;100591.38;4789615;29;20039;-80
2022/11/08 03:53:13;;;;;;;2.60;1.00;;;;;;;17.27;65.21;100585.34;4790974;29;20187;-80
2022/11/08 03:55:38;;;;;;;2.80;1.00;;;;;;;17.28;65.28;100575.78;4790637;29;20042;-81
2022/11/08 03:58:03;;;;;;;2.40;1.10;;;;;;;17.27;65.10;100561.94;4799714;29;20039;-80
2022/11/08 04:00:29;;;;;;;2.05;1.15;;;;;;;17.28;64.84;100565.41;4804434;29;20120;-80
2022/11/08 04:03:00;;;;;;;1.60;0.90;;;;;;;17.28;65.08;100573.19;4791046;29;20039;-81
2022/11/08 04:05:26;;;;;;;2.30;0.73;;;;;;;17.28;64.96;100579.25;4804873;29;20180;-80
2022/11/08 04:07:51;;;;;;;1.77;0.90;;;;;;;17.27;64.89;100585.34;4774604;30;20522;-80
2022/11/08 04:10:16;;;;;;;2.20;0.95;;;;;;;17.27;64.81;100585.34;4789933;30;20043;-80
2022/11/08 04:15:27;;;;;;;3.40;1.15;;;;;;;17.27;65.01;100569.75;4789594;29;20391;-80
2022/11/08 04:23:27;;;;;;;1.70;0.88;;;;;;;17.27;65.03;100577.53;4773556;30;20047;-80
2022/11/08 04:25:58;;;;;;;2.55;1.10;;;;;;;17.27;64.88;100563.69;4770237;30;20042;-80
2022/11/08 04:28:28;;;;;;;1.55;0.93;;;;;;;17.27;64.85;100561.09;4770801;30;20047;-80
2022/11/08 04:30:56;;;;;;;2.17;0.98;;;;;;;17.26;64.93;100556.75;4771002;30;20040;-80
2022/11/08 04:33:22;;;;;;;2.08;1.00;;;;;;;17.27;64.93;100554.13;4741190;30;20039;-80
2022/11/08 04:35:47;;;;;;;2.05;1.00;;;;;;;17.26;65.06;100549.81;4769287;30;20040;-81
2022/11/08 04:38:14;;;;;;;2.35;0.90;;;;;;;17.27;64.82;100543.72;4771008;30;20027;-80
2022/11/08 04:40:39;;;;;;;1.95;0.90;;;;;;;17.25;65.04;100542.91;4772725;30;20027;-80
2022/11/08 04:43:04;;;;;;;1.48;0.90;;;;;;;17.26;64.57;100536.78;4756406;30;20492;-80
2022/11/08 04:45:30;;;;;;;2.67;1.20;;;;;;;17.26;64.81;100530.75;4740773;30;20483;-80
2022/11/08 04:47:55;;;;;;;1.50;0.80;;;;;;;17.24;65.00;100520.34;4756197;30;20040;-81
2022/11/08 04:50:20;;;;;;;3.97;1.10;;;;;;;17.25;64.86;100524.69;4743886;30;20124;-80
2022/11/08 04:52:54;;;;;;;2.60;0.93;;;;;;;17.25;64.77;100516.03;4761024;30;20043;-83
2022/11/08 04:55:20;;;;;;;2.88;1.00;;;;;;;17.25;65.01;100511.69;4757668;30;20092;-80
2022/11/08 04:57:47;;;;;;;2.17;0.82;;;;;;;17.24;64.53;100504.75;4771379;30;20065;-81
2022/11/08 05:00:13;;;;;;;1.40;0.80;;;;;;;17.25;64.91;100509.09;4772694;30;20460;-81
2022/11/08 05:02:38;;;;;;;2.10;0.80;;;;;;;17.25;64.77;100503.03;4756751;30;20043;-81
2022/11/08 05:05:04;;;;;;;2.65;1.00;;;;;;;17.24;65.04;100499.53;4755579;30;20031;-80
2022/11/08 05:07:30;;;;;;;1.40;0.80;;;;;;;17.22;64.91;100483.13;4770741;30;20055;-80
2022/11/08 05:09:55;;;;;;;2.83;0.90;;;;;;;17.24;64.78;100486.53;4754846;30;20063;-80
2022/11/08 05:12:21;;;;;;;1.98;0.95;;;;;;;17.24;64.51;100490.88;4770888;30;20084;-80
2022/11/08 05:14:47;;;;;;;1.92;1.00;;;;;;;17.24;64.53;100486.53;4771496;30;20039;-80
2022/11/08 05:17:12;;;;;;;1.92;0.90;;;;;;;17.24;64.74;100483.94;4756112;30;20039;-80
2022/11/08 05:25:06;;;;;;;1.88;0.90;;;;;;;17.22;64.50;100471.84;4788895;29;20529;-80
2022/11/08 05:27:31;;;;;;;2.08;1.00;;;;;;;17.21;64.61;100472.75;4788864;29;20050;-80
2022/11/08 05:29:56;;;;;;;1.98;1.00;;;;;;;17.24;64.82;100468.34;4787306;29;20035;-80
2022/11/08 05:32:22;;;;;;;1.80;0.93;;;;;;;17.23;64.42;100464.03;4787685;29;20411;-80
2022/11/08 05:34:47;;;;;;;2.05;0.77;;;;;;;17.22;64.47;100462.34;4788818;30;20487;-80
2022/11/08 05:37:12;;;;;;;1.83;1.00;;;;;;;17.24;64.44;100459.69;4773441;30;20080;-80
2022/11/08 05:39:38;;;;;;;2.00;0.70;;;;;;;17.24;64.69;100457.94;4802428;29;20043;-80
2022/11/08 05:42:04;;;;;;;2.03;0.75;;;;;;;17.25;64.61;100445.81;4773635;30;20043;-79
2022/11/08 05:44:29;;;;;;;2.08;0.70;;;;;;;17.25;64.76;100444.06;4784536;29;20168;-80
2022/11/08 05:46:55;;;;;;;1.42;0.82;;;;;;;17.28;64.63;100437.97;4788291;30;20126;-80
2022/11/08 05:49:20;;;;;;;1.50;0.70;;;;;;;17.29;64.48;100442.31;4787429;30;20039;-79
2022/11/08 05:51:45;;;;;;;2.50;0.80;;;;;;;17.33;64.70;100443.09;4758261;30;20177;-80
2022/11/08 05:54:12;;;;;;;2.22;0.80;;;;;;;17.31;64.53;100443.13;4803542;29;20035;-79
2022/11/08 05:56:37;;;;;;;2.47;1.02;;;;;;;17.33;64.33;100436.16;4773249;29;20054;-80
2022/11/08 05:59:03;;;;;;;1.92;1.00;;;;;;;17.34;64.49;100439.63;4803070;29;20035;-80
2022/11/08 06:01:29;;;;;;;2.05;0.77;;;;;;;17.34;64.45;100430.06;4783603;29;20048;-79
2022/11/08 06:03:54;;;;;;;6.03;1.90;;;;;;;17.38;64.38;100428.31;4762304;30;20503;-79
2022/11/08 06:06:21;;;;;;;12.07;3.53;;;;;;;17.39;64.54;100436.06;4768459;30;20113;-78
2022/11/08 06:08:47;;;;;;;11.32;4.68;;;;;;;17.42;64.51;100438.63;4762105;30;20106;-82
2022/11/08 06:11:16;;;;;;;10.88;4.03;;;;;;;17.42;64.48;100435.16;4805971;29;20445;-80
2022/11/08 06:13:42;;;;;;;12.82;4.45;;;;;;;17.43;64.69;100434.28;4803801;29;20035;-80
2022/11/08 06:16:10;;;;;;;12.52;4.07;;;;;;;17.39;64.81;100428.25;4788681;30;20030;-80
2022/11/08 06:18:37;;;;;;;14.27;3.80;;;;;;;17.39;64.89;100425.66;4784670;30;20456;-79
2022/11/08 06:21:05;;;;;;;10.35;3.78;;;;;;;17.39;64.79;100423.06;4785012;30;20040;-80
2022/11/08 06:23:31;;;;;;;12.20;3.38;;;;;;;17.37;64.95;100417.00;4784631;30;20566;-79
2022/11/08 06:25:57;;;;;;;10.77;3.47;;;;;;;17.36;64.97;100412.72;4789518;29;20046;-81
2022/11/08 06:28:23;;;;;;;11.20;3.60;;;;;;;17.36;65.13;100410.09;4787846;30;20031;-80
2022/11/08 06:30:48;;;;;;;12.20;3.60;;;;;;;17.35;64.65;100404.91;4802988;29;20088;-81
2022/11/08 06:33:14;;;;;;;9.68;2.95;;;;;;;17.36;65.21;100409.25;4787719;30;20475;-78
2022/11/08 06:35:40;;;;;;;10.75;3.30;;;;;;;17.37;65.19;100413.56;4789851;29;20035;-78
2022/11/08 06:38:05;;;;;;;10.90;3.15;;;;;;;17.37;64.99;100418.75;4803327;29;20035;-78
2022/11/08 06:40:31;;;;;;;9.85;3.30;;;;;;;17.38;64.93;100416.16;4801987;29;20073;-79
2022/11/08 06:42:58;;;;;;;17.00;4.55;;;;;;;17.41;65.24;100408.28;4786763;30;20039;-80
2022/11/08 06:45:24;;;;;;;13.07;4.38;;;;;;;17.40;65.05;100411.78;4773307;29;20130;-78
2022/11/08 06:47:59;;;;;;;13.23;3.90;;;;;;;17.41;65.13;100404.84;4784920;29;20170;-78
2022/11/08 06:50:24;;;;;;;9.68;4.07;;;;;;;17.32;65.18;100410.19;4774016;30;20103;-79
2022/11/08 06:53:02;;;;;;;11.77;3.90;;;;;;;17.25;65.71;100412.00;4805957;29;20118;-79
2022/11/08 06:55:28;;;;;;;13.20;3.90;;;;;;;17.24;65.21;100411.13;4807282;29;20054;-79
2022/11/08 06:57:54;;;;;;;11.82;3.78;;;;;;;17.22;65.39;100406.84;4792074;29;20070;-79
2022/11/08 07:00:19;;;;;;;9.48;3.65;;;;;;;17.23;65.29;100414.63;4792686;29;20067;-78
2022/11/08 07:02:50;;;;;;;11.05;3.55;;;;;;;17.26;64.74;100411.13;4792626;29;20039;-78
2022/11/08 07:05:15;;;;;;;12.30;3.28;;;;;;;17.34;64.37;100418.81;4793992;29;20031;-78
2022/11/08 07:07:41;;;;;;;10.90;3.55;;;;;;;17.38;64.32;100412.69;4791157;30;20387;-78
2022/11/08 07:10:06;;;;;;;12.88;3.33;;;;;;;17.39;64.15;100407.44;4790944;30;20040;-78
2022/11/08 07:12:32;;;;;;;8.65;3.00;;;;;;;17.40;64.19;100408.34;4806522;29;20134;-79
2022/11/08 07:14:57;;;;;;;7.43;2.83;;;;;;;17.39;64.23;100407.44;4806253;29;20459;-79
2022/11/08 07:17:22;;;;;;;8.52;3.42;;;;;;;17.39;64.14;100399.66;4776264;30;20035;-79
2022/11/08 07:19:48;;;;;;;6.43;2.85;;;;;;;17.38;64.16;100392.75;4805751;29;20066;-78
2022/11/08 07:22:13;;;;;;;7.25;2.85;;;;;;;17.38;64.15;100394.50;4806012;29;20044;-79
2022/11/08 07:24:39;;;;;;;5.97;2.90;;;;;;;17.39;64.12;100407.44;4776909;30;20398;-79
2022/11/08 07:27:04;;;;;;;10.35;2.97;;;;;;;17.39;63.98;100404.84;4809401;29;20126;-80
2022/11/08 07:29:29;;;;;;;6.85;2.85;;;;;;;17.38;64.20;100399.69;4779601;30;20386;-79
2022/11/08 07:31:55;;;;;;;9.95;3.05;;;;;;;17.38;64.28;100403.13;4806732;29;20066;-78
2022/11/08 07:34:20;;;;;;;7.18;2.83;;;;;;;17.38;64.53;100403.13;4790703;30;20046;-79
2022/11/08 07:36:47;;;;;;;6.72;2.90;;;;;;;17.39;64.24;100406.59;4805438;29;20089;-79
2022/11/08 07:39:12;;;;;;;10.40;2.67;;;;;;;17.38;63.99;100410.09;4805256;29;20051;-78
2022/11/08 07:41:37;;;;;;;8.93;2.55;;;;;;;17.38;64.08;100410.94;4805888;29;20039;-78
2022/11/08 07:44:03;;;;;;;6.30;2.70;;;;;;;17.38;64.00;100399.69;4790075;30;20031;-79
2022/11/08 07:46:28;;;;;;;6.43;2.40;;;;;;;17.37;64.10;100393.59;4791695;29;20035;-79
2022/11/08 07:48:54;;;;;;;6.00;2.40;;;;;;;17.37;63.96;100395.34;4791737;29;20160;-78
2022/11/08 07:51:19;;;;;;;7.43;2.58;;;;;;;17.38;64.01;100400.53;4789852;29;20069;-79
2022/11/08 07:53:45;;;;;;;7.20;2.38;;;;;;;17.36;63.91;100399.69;4790314;29;20373;-79
2022/11/08 07:56:11;;;;;;;6.72;2.35;;;;;;;17.37;64.13;100405.75;4791072;30;20031;-79
2022/11/08 07:58:36;;;;;;;6.13;2.50;;;;;;;17.37;64.14;100404.00;4806838;29;20042;-79
2022/11/08 08:01:02;;;;;;;4.82;2.40;;;;;;;17.37;64.22;100406.59;4792845;29;20111;-78
2022/11/08 08:03:29;;;;;;;6.05;2.65;;;;;;;17.37;64.25;100409.22;4794843;30;20407;-79
2022/11/08 08:05:55;;;;;;;6.32;2.47;;;;;;;17.37;64.01;100393.59;4794639;29;20027;-79
2022/11/08 08:08:20;;;;;;;6.15;2.70;;;;;;;17.37;64.04;100392.75;4791869;30;20466;-79
2022/11/08 08:10:46;;;;;;;5.28;2.38;;;;;;;17.36;64.06;100391.91;4805105;29;20499;-79
2022/11/08 08:13:12;;;;;;;5.88;2.40;;;;;;;17.36;63.95;100394.50;4789729;30;20479;-79
2022/11/08 08:15:38;;;;;;;6.50;2.75;;;;;;;17.36;64.17;100381.50;4790725;29;20088;-79
2022/11/08 08:18:05;;;;;;;5.57;2.25;;;;;;;17.37;63.99;100383.19;4803188;29;20039;-79
2022/11/08 08:20:32;;;;;;;5.63;2.33;;;;;;;17.37;63.94;100388.41;4773040;30;20051;-78
2022/11/08 08:22:58;;;;;;;5.70;2.30;;;;;;;17.36;63.89;100399.69;4771592;30;20040;-78
2022/11/08 08:25:24;;;;;;;5.95;2.20;;;;;;;17.39;63.92;100406.59;4772601;30;20035;-78
2022/11/08 08:27:52;;;;;;;5.00;2.40;;;;;;;17.37;63.86;100411.81;4756587;30;20046;-78
2022/11/08 08:30:18;;;;;;;3.95;2.20;;;;;;;17.37;63.90;100405.75;4771379;30;20056;-79
2022/11/08 08:32:45;;;;;;;5.10;1.90;;;;;;;17.37;63.91;100405.75;4772520;30;20191;-78
2022/11/08 08:35:11;;;;;;;4.38;2.13;;;;;;;17.37;63.91;100408.34;4756967;30;20038;-79
2022/11/08 08:37:37;;;;;;;5.38;2.25;;;;;;;17.36;63.79;100411.84;4772252;30;20028;-78
2022/11/08 08:40:03;;;;;;;6.03;2.40;;;;;;;17.37;64.10;100404.00;4741900;30;20032;-79
2022/11/08 08:42:28;;;;;;;6.93;2.40;;;;;;;17.35;63.64;100384.97;4756278;30;20479;-79
2022/11/08 08:44:53;;;;;;;3.88;2.00;;;;;;;17.36;63.76;100381.50;4771780;30;20039;-79
2022/11/08 08:47:19;;;;;;;6.28;2.17;;;;;;;17.36;63.86;100383.25;4761095;30;20095;-79
2022/11/08 08:49:44;;;;;;;4.40;2.03;;;;;;;17.36;63.79;100372.84;4772398;30;20032;-78
2022/11/08 08:52:09;;;;;;;3.17;1.75;;;;;;;17.35;63.74;100371.97;4773793;30;20047;-79
2022/11/08 08:54:35;;;;;;;5.03;2.15;;;;;;;17.36;63.91;100365.03;4757445;30;20048;-79
2022/11/08 08:57:00;;;;;;;4.90;2.00;;;;;;;17.37;63.52;100370.19;4756456;30;20028;-78
2022/11/08 08:59:27;;;;;;;3.90;1.85;;;;;;;17.37;63.82;100380.59;4772483;30;20066;-79
2022/11/08 09:01:52;;;;;;;3.60;1.92;;;;;;;17.36;63.60;100367.63;4755769;30;20126;-79
2022/11/08 09:04:18;;;;;;;4.68;1.83;;;;;;;17.37;63.61;100370.19;4756809;30;20490;-79
2022/11/08 09:06:43;;;;;;;4.03;1.85;;;;;;;17.37;63.51;100369.34;4755795;30;20034;-78
2022/11/08 09:09:08;;;;;;;3.80;2.00;;;;;;;17.39;63.64;100381.44;4771011;30;20041;-79
2022/11/08 09:11:34;;;;;;;4.50;1.98;;;;;;;17.38;63.50;100371.06;4755843;30;20054;-78
2022/11/08 09:13:59;;;;;;;3.60;1.77;;;;;;;17.38;63.37;100374.53;4770036;30;20033;-79
2022/11/08 09:16:24;;;;;;;4.50;1.95;;;;;;;17.38;63.72;100384.94;4755612;30;20121;-79
2022/11/08 09:18:50;;;;;;;3.58;2.05;;;;;;;17.39;63.59;100381.44;4766032;29;20055;-78
2022/11/08 09:21:15;;;;;;;4.07;1.83;;;;;;;17.38;63.71;100378.88;4789900;29;20046;-78
2022/11/08 09:23:41;;;;;;;4.53;1.73;;;;;;;17.38;63.58;100392.75;4788407;30;20046;-78
2022/11/08 09:26:06;;;;;;;5.15;1.80;;;;;;;17.38;63.44;100377.13;4789353;29;20081;-79
2022/11/08 09:28:35;;;;;;;3.30;1.58;;;;;;;17.37;63.36;100385.81;4803549;29;20118;-79
2022/11/08 09:31:10;;;;;;;4.25;1.90;;;;;;;17.38;63.24;100386.69;4789509;29;20035;-79
2022/11/08 09:33:36;;;;;;;4.43;1.85;;;;;;;17.38;63.35;100397.09;4789435;29;20062;-79
2022/11/08 09:36:05;;;;;;;4.13;1.80;;;;;;;17.37;63.60;100385.81;4788235;29;20085;-79
2022/11/08 09:38:31;;;;;;;4.18;1.77;;;;;;;17.39;63.32;100376.22;4788203;30;20035;-79
2022/11/08 09:41:15;;;;;;;3.50;1.60;;;;;;;17.39;63.13;100380.59;4788066;30;20471;-79
2022/11/08 09:43:55;;;;;;;3.50;1.77;;;;;;;17.40;63.38;100401.38;4788128;30;20081;-79
2022/11/08 09:46:32;;;;;;;2.67;1.38;;;;;;;17.40;63.35;100390.13;4803599;29;20118;-79
2022/11/08 09:49:00;;;;;;;3.90;1.80;;;;;;;17.39;63.18;100381.44;4788078;30;20033;-79
2022/11/08 09:51:27;;;;;;;2.83;1.50;;;;;;;17.40;63.32;100348.50;4788042;30;20035;-79
2022/11/08 09:53:54;;;;;;;3.35;1.50;;;;;;;17.39;63.22;100351.97;4787735;29;20503;-78
2022/11/08 09:56:20;;;;;;;3.58;1.35;;;;;;;17.40;63.17;100384.91;4787917;30;20042;-79
2022/11/08 09:59:01;;;;;;;3.67;1.60;;;;;;;17.40;63.10;100372.75;4788967;30;20031;-79
2022/11/08 10:01:32;;;;;;;2.95;1.45;;;;;;;17.41;63.14;100379.66;4802865;29;20042;-79
2022/11/08 10:04:05;;;;;;;3.28;1.40;;;;;;;17.41;63.05;100379.66;4789917;30;20032;-80
2022/11/08 10:07:02;;;;;;;3.90;1.67;;;;;;;17.42;63.04;100376.19;4794802;29;20023;-80
2022/11/08 10:09:39;;;;;;;3.78;1.60;;;;;;;17.42;63.13;100363.19;4793858;29;20097;-79
2022/11/08 10:12:29;;;;;;;3.22;1.52;;;;;;;17.42;62.95;100375.31;4788886;30;20031;-79
2022/11/08 10:15:13;;;;;;;3.60;1.65;;;;;;;17.44;62.87;100381.34;4790062;30;20545;-79
2022/11/08 10:17:50;;;;;;;2.65;1.40;;;;;;;17.42;62.72;100373.59;4789050;30;20042;-79
2022/11/08 10:20:22;;;;;;;3.65;1.50;;;;;;;17.43;62.78;100370.09;4787521;29;20055;-79
2022/11/08 10:22:58;;;;;;;3.10;1.50;;;;;;;17.43;62.82;100382.25;4789223;30;20230;-79
2022/11/08 10:25:37;;;;;;;6.05;1.63;;;;;;;17.44;62.64;100382.25;4804262;29;20387;-79
2022/11/08 10:28:06;;;;;;;2.78;1.42;;;;;;;17.44;62.73;100382.25;4792313;29;20027;-78
2022/11/08 10:30:38;;;;;;;2.40;1.30;;;;;;;17.44;63.01;100390.03;4807568;29;20031;-79
2022/11/08 10:33:32;;;;;;;2.92;1.38;;;;;;;17.45;62.57;100386.53;4806351;29;20486;-79
2022/11/08 10:36:10;;;;;;;3.78;1.40;;;;;;;17.46;62.79;100387.41;4805018;29;20062;-79
2022/11/08 10:38:50;;;;;;;3.67;1.40;;;;;;;17.45;62.67;100396.94;4792382;29;20031;-79
2022/11/08 10:41:41;;;;;;;3.40;1.52;;;;;;;17.46;62.72;100401.28;4791212;30;20061;-78
2022/11/08 10:44:23;;;;;;;2.47;1.55;;;;;;;17.45;62.93;100402.16;4792359;30;20036;-78
2022/11/08 10:47:09;;;;;;;2.50;1.30;;;;;;;17.45;62.77;100403.91;4792000;29;20471;-78
2022/11/08 10:49:40;;;;;;;2.85;1.50;;;;;;;17.46;62.48;100388.28;4792099;29;20050;-79
2022/11/08 10:52:11;;;;;;;2.88;1.30;;;;;;;17.47;62.63;100391.72;4805730;29;20034;-78
2022/11/08 10:54:46;;;;;;;2.92;1.20;;;;;;;17.48;62.79;100401.25;4790677;29;20073;-78
2022/11/08 10:57:26;;;;;;;2.47;1.35;;;;;;;17.46;62.76;100390.88;4792199;30;20030;-78
2022/11/08 10:59:52;;;;;;;3.63;1.55;;;;;;;17.48;62.59;100393.44;4791935;29;20035;-78
2022/11/08 11:02:24;;;;;;;2.72;1.30;;;;;;;17.46;62.64;100388.28;4805641;29;20062;-78
2022/11/08 11:04:51;;;;;;;2.25;1.23;;;;;;;17.46;62.71;100397.81;4805669;29;20031;-78
2022/11/08 11:07:33;;;;;;;2.03;1.23;;;;;;;17.45;62.61;100386.53;4805675;29;20039;-78
2022/11/08 11:10:41;;;;;;;2.08;1.20;;;;;;;17.47;62.75;100396.94;4790519;30;20525;-79
2022/11/08 11:13:23;;;;;;;2.38;1.30;;;;;;;17.47;62.92;100391.72;4771562;30;20063;-78
2022/11/08 11:15:57;;;;;;;1.75;1.10;;;;;;;17.48;62.57;100393.44;4771980;30;20539;-79
2022/11/08 11:18:32;;;;;;;3.10;1.30;;;;;;;17.48;62.37;100389.13;4783212;29;20043;-79
2022/11/08 11:21:12;;;;;;;2.03;1.08;;;;;;;17.48;62.47;100385.63;4773574;30;20039;-78
2022/11/08 11:23:50;;;;;;;2.05;1.05;;;;;;;17.50;62.50;100380.41;4757717;30;20446;-79
2022/11/08 11:26:28;;;;;;;2.22;1.30;;;;;;;17.48;62.52;100372.63;4758961;30;20031;-79
2022/11/08 11:29:20;;;;;;;3.00;1.20;;;;;;;17.49;62.40;100374.34;4765909;30;20046;-79
2022/11/08 11:31:48;;;;;;;1.63;0.90;;;;;;;17.48;62.57;100380.44;4769420;30;20046;-79
2022/11/08 11:34:16;;;;;;;2.88;1.20;;;;;;;17.48;62.57;100376.09;4779938;30;20118;-81
2022/11/08 11:36:46;;;;;;;3.10;1.45;;;;;;;17.49;62.98;100376.97;4776795;30;20073;-79
2022/11/08 11:39:34;;;;;;;1.85;1.05;;;;;;;17.48;62.39;100375.22;4773616;30;20395;-79
2022/11/08 11:42:07;;;;;;;1.80;1.10;;;;;;;17.51;62.31;100379.50;4772059;30;20042;-78
2022/11/08 11:44:45;;;;;;;1.67;1.10;;;;;;;17.50;62.41;100370.00;4772962;30;20030;-79
2022/11/08 11:47:22;;;;;;;2.08;1.15;;;;;;;17.51;62.46;100376.91;4773116;30;20023;-79
2022/11/08 11:49:50;;;;;;;1.42;1.10;;;;;;;17.51;62.71;100377.78;4773421;30;20046;-78
2022/11/08 11:52:19;;;;;;;1.85;1.00;;;;;;;17.51;62.50;100382.13;4772055;30;20035;-78
2022/11/08 11:54:48;;;;;;;2.83;1.23;;;;;;;17.50;62.48;100373.47;4772103;30;20065;-79
2022/11/08 11:57:45;;;;;;;1.77;1.20;;;;;;;17.51;62.27;100375.19;4771917;30;20587;-80
2022/11/08 12:00:13;;;;;;;2.03;1.20;;;;;;;17.50;62.25;100378.66;4756848;30;20044;-78
2022/11/08 12:02:56;;;;;;;2.85;1.45;;;;;;;17.51;62.48;100375.19;4772100;30;20069;-78
2022/11/08 12:05:39;;;;;;;1.83;0.90;;;;;;;17.52;62.30;100376.03;4756754;30;20039;-78
2022/11/08 12:08:35;;;;;;;2.30;1.20;;;;;;;17.51;62.51;100375.19;4771413;30;20035;-79
2022/11/08 12:11:06;;;;;;;1.50;0.90;;;;;;;17.51;62.66;100375.19;4771754;30;20032;-78
2022/11/08 12:13:48;;;;;;;2.78;1.20;;;;;;;17.51;62.04;100369.09;4756728;30;20042;-78
2022/11/08 12:16:44;;;;;;;2.60;1.23;;;;;;;17.52;62.56;100376.03;4772966;30;20030;-79
2022/11/08 12:19:29;;;;;;;1.63;1.10;;;;;;;17.51;62.23;100363.91;4774523;29;20060;-78
2022/11/08 12:22:21;;;;;;;2.33;1.30;;;;;;;17.51;62.57;100362.19;4756972;30;20050;-79
2022/11/08 12:25:04;;;;;;;1.75;0.80;;;;;;;17.52;62.29;100368.25;4758390;30;20047;-79
2022/11/08 12:27:32;;;;;;;;;;;;;;;17.53;62.31;100369.94;4772982;30;20081;-78
2022/11/08 12:30:36;;;;;;;2.55;1.25;;;;;;;17.52;62.40;100366.50;4756681;30;19928;-78
2022/11/08 12:33:23;;;;;;;2.57;1.50;;;;;;;17.52;62.23;100360.44;4741502;30;20120;-78
2022/11/08 12:36:36;;;;;;;1.92;1.20;;;;;;;17.52;62.32;100363.03;4756475;30;20035;-79
2022/11/08 12:39:23;;;;;;;1.90;1.10;;;;;;;17.52;62.37;100369.09;4755297;30;20396;-78